Time,TemperatureF,DewpointF,PressureIn,WindDirection,WindDirectionDegrees,WindSpeedMPH,WindSpeedGustMPH,Humidity,HourlyPrecipIn,Conditions,Clouds,dailyrainin,SoftwareType,DateUTC
2013-02-11 00:01:00,19.0,13.0,27.71,West,276,8.0,14.0,78,0.00,,,0.00,,2013-02-11 07:01:00,
2013-02-11 00:11:00,19.0,13.0,27.71,West,268,7.0,11.0,78,0.00,,,0.00,,2013-02-11 07:11:00,
2013-02-11 00:21:00,19.0,13.0,27.71,West,268,7.0,11.0,78,0.00,,,0.00,,2013-02-11 07:21:00,
2013-02-11 00:32:00,19.0,13.0,27.72,WNW,289,6.0,12.0,78,0.00,,,0.00,,2013-02-11 07:32:00,
2013-02-11 00:41:00,19.0,13.0,27.71,WNW,288,7.0,10.0,78,0.00,,,0.00,,2013-02-11 07:41:00,
2013-02-11 00:52:00,19.0,13.0,27.71,WNW,288,7.0,10.0,78,0.00,,,0.00,,2013-02-11 07:52:00,
2013-02-11 01:01:00,19.0,14.0,27.71,West,279,7.0,12.0,79,0.00,,,0.00,,2013-02-11 08:01:00,
2013-02-11 01:11:00,19.0,14.0,27.71,West,279,7.0,12.0,79,0.00,,,0.00,,2013-02-11 08:11:00,
2013-02-11 01:21:00,19.0,14.0,27.71,West,281,6.0,10.0,79,0.00,,,0.00,,2013-02-11 08:21:00,
2013-02-11 01:31:00,19.0,13.0,27.70,West,272,7.0,12.0,78,0.00,,,0.00,,2013-02-11 08:31:00,
2013-02-11 01:42:00,19.0,13.0,27.71,West,276,7.0,11.0,78,0.00,,,0.00,,2013-02-11 08:42:00,
2013-02-11 01:52:00,19.0,13.0,27.71,West,276,7.0,11.0,78,0.00,,,0.00,,2013-02-11 08:52:00,
2013-02-11 02:01:00,19.0,14.0,27.70,West,264,5.0,9.0,79,0.00,,,0.00,,2013-02-11 09:01:00,
2013-02-11 02:12:00,19.0,14.0,27.70,West,264,5.0,9.0,79,0.00,,,0.00,,2013-02-11 09:12:00,
2013-02-11 02:21:00,19.0,14.0,27.70,West,275,6.0,10.0,79,0.00,,,0.00,,2013-02-11 09:21:00,
2013-02-11 02:31:00,19.0,14.0,27.70,West,280,6.0,10.0,79,0.00,,,0.00,,2013-02-11 09:31:00,
2013-02-11 02:41:00,19.0,14.0,27.70,West,280,6.0,10.0,79,0.00,,,0.00,,2013-02-11 09:41:00,
2013-02-11 02:52:00,19.0,14.0,27.70,West,271,4.0,9.0,79,0.00,,,0.00,,2013-02-11 09:52:00,
2013-02-11 03:01:00,18.0,13.0,27.69,SW,227,5.0,8.0,79,0.00,,,0.00,,2013-02-11 10:01:00,
2013-02-11 03:11:00,18.0,13.0,27.69,SW,227,5.0,8.0,79,0.00,,,0.00,,2013-02-11 10:11:00,
2013-02-11 03:21:00,18.0,13.0,27.69,SW,217,4.0,7.0,81,0.00,,,0.00,,2013-02-11 10:21:00,
2013-02-11 03:31:00,18.0,13.0,27.68,SW,217,4.0,7.0,81,0.00,,,0.00,,2013-02-11 10:31:00,
2013-02-11 03:42:00,18.0,13.0,27.68,SW,217,4.0,7.0,81,0.00,,,0.00,,2013-02-11 10:42:00,
2013-02-11 03:52:00,17.0,12.0,27.67,SSW,206,6.0,8.0,82,0.00,,,0.00,,2013-02-11 10:52:00,
2013-02-11 04:01:00,17.0,13.0,27.67,SW,223,1.0,7.0,83,0.00,,,0.00,,2013-02-11 11:01:00,
2013-02-11 04:11:00,17.0,13.0,27.67,SW,223,1.0,7.0,83,0.00,,,0.00,,2013-02-11 11:11:00,
2013-02-11 04:22:00,17.0,13.0,27.67,SSW,211,5.0,7.0,83,0.00,,,0.00,,2013-02-11 11:22:00,
2013-02-11 04:32:00,17.0,13.0,27.67,SSW,211,3.0,8.0,83,0.00,,,0.00,,2013-02-11 11:32:00,
2013-02-11 04:42:00,17.0,13.0,27.67,SSW,211,3.0,8.0,83,0.00,,,0.00,,2013-02-11 11:42:00,
2013-02-11 04:52:00,17.0,13.0,27.67,SSW,213,3.0,5.0,83,0.00,,,0.00,,2013-02-11 11:52:00,
2013-02-11 05:03:00,17.0,13.0,27.67,SSW,202,4.0,6.0,84,0.00,,,0.00,,2013-02-11 12:03:00,
2013-02-11 05:12:00,17.0,13.0,27.67,SSW,202,4.0,6.0,84,0.00,,,0.00,,2013-02-11 12:12:00,
2013-02-11 05:22:00,17.0,13.0,27.67,South,190,5.0,7.0,84,0.00,,,0.00,,2013-02-11 12:22:00,
2013-02-11 05:32:00,17.0,13.0,27.67,SSW,196,7.0,9.0,84,0.00,,,0.00,,2013-02-11 12:32:00,
2013-02-11 05:42:00,17.0,13.0,27.67,SSW,196,6.0,10.0,83,0.00,,,0.00,,2013-02-11 12:42:00,
2013-02-11 05:52:00,17.0,13.0,27.67,SSW,196,6.0,10.0,83,0.00,,,0.00,,2013-02-11 12:52:00,
2013-02-11 06:02:00,16.0,12.0,27.67,South,178,5.0,8.0,84,0.00,,,0.00,,2013-02-11 13:02:00,
2013-02-11 06:11:00,16.0,12.0,27.66,South,189,0.0,5.0,84,0.00,,,0.00,,2013-02-11 13:11:00,
2013-02-11 06:22:00,16.0,12.0,27.66,South,189,0.0,5.0,84,0.00,,,0.00,,2013-02-11 13:22:00,
2013-02-11 06:32:00,15.0,11.0,27.66,South,189,1.0,3.0,85,0.00,,,0.00,,2013-02-11 13:32:00,
2013-02-11 06:42:00,15.0,11.0,27.66,South,189,1.0,3.0,85,0.00,,,0.00,,2013-02-11 13:42:00,
2013-02-11 06:52:00,15.0,11.0,27.66,South,188,3.0,5.0,85,0.00,,,0.00,,2013-02-11 13:52:00,
2013-02-11 07:01:00,14.0,11.0,27.66,SSE,163,5.0,6.0,86,0.00,,,0.00,,2013-02-11 14:01:00,
2013-02-11 07:11:00,14.0,11.0,27.66,SSE,163,5.0,6.0,86,0.00,,,0.00,,2013-02-11 14:11:00,
2013-02-11 07:22:00,14.0,11.0,27.65,SSE,165,0.0,4.0,86,0.00,,,0.00,,2013-02-11 14:22:00,
2013-02-11 07:32:00,14.0,11.0,27.65,South,182,5.0,8.0,87,0.00,,,0.00,,2013-02-11 14:32:00,
2013-02-11 07:42:00,14.0,11.0,27.65,South,182,5.0,8.0,87,0.00,,,0.00,,2013-02-11 14:42:00,
2013-02-11 07:53:00,15.0,12.0,27.65,South,180,6.0,9.0,87,0.00,,,0.00,,2013-02-11 14:53:00,
2013-02-11 08:02:00,15.0,12.0,27.65,South,184,4.0,7.0,87,0.00,,,0.00,,2013-02-11 15:02:00,
2013-02-11 08:11:00,15.0,12.0,27.65,South,184,4.0,7.0,87,0.00,,,0.00,,2013-02-11 15:11:00,
2013-02-11 08:22:00,15.0,12.0,27.65,South,184,1.0,5.0,86,0.00,,,0.00,,2013-02-11 15:22:00,
2013-02-11 08:32:00,15.0,12.0,27.65,South,184,1.0,5.0,86,0.00,,,0.00,,2013-02-11 15:32:00,
2013-02-11 08:42:00,17.0,13.0,27.64,South,184,0.0,2.0,85,0.00,,,0.00,,2013-02-11 15:42:00,
2013-02-11 08:52:00,17.0,13.0,27.64,South,184,0.0,2.0,85,0.00,,,0.00,,2013-02-11 15:52:00,
2013-02-11 09:02:00,17.0,13.0,27.63,SSW,198,2.0,5.0,85,0.00,,,0.00,,2013-02-11 16:02:00,
2013-02-11 09:12:00,17.0,13.0,27.63,SSW,198,2.0,5.0,85,0.00,,,0.00,,2013-02-11 16:12:00,
2013-02-11 09:22:00,18.0,14.0,27.63,SSW,198,4.0,6.0,84,0.00,,,0.00,,2013-02-11 16:22:00,
2013-02-11 09:32:00,19.0,15.0,27.62,South,188,6.0,9.0,83,0.00,,,0.00,,2013-02-11 16:32:00,
2013-02-11 09:42:00,20.0,16.0,27.62,SSW,194,7.0,9.0,83,0.00,,,0.00,,2013-02-11 16:42:00,
2013-02-11 09:52:00,20.0,16.0,27.62,SSW,194,7.0,9.0,83,0.00,,,0.00,,2013-02-11 16:52:00,
2013-02-11 10:01:00,21.0,16.0,27.61,SSW,193,9.0,15.0,81,0.00,,,0.00,,2013-02-11 17:01:00,
2013-02-11 10:11:00,21.0,16.0,27.61,SSW,193,9.0,15.0,81,0.00,,,0.00,,2013-02-11 17:11:00,
2013-02-11 10:22:00,22.0,16.0,27.61,South,183,9.0,13.0,79,0.00,,,0.00,,2013-02-11 17:22:00,
2013-02-11 10:32:00,23.0,17.0,27.60,South,182,10.0,13.0,79,0.00,,,0.00,,2013-02-11 17:32:00,
2013-02-11 10:42:00,23.0,17.0,27.60,South,182,10.0,13.0,79,0.00,,,0.00,,2013-02-11 17:42:00,
2013-02-11 10:53:00,25.0,19.0,27.60,South,178,10.0,16.0,77,0.00,,,0.00,,2013-02-11 17:53:00,
2013-02-11 11:01:00,26.0,19.0,27.60,SSW,192,11.0,16.0,74,0.00,,,0.00,,2013-02-11 18:01:00,
2013-02-11 11:11:00,26.0,19.0,27.60,SSW,192,11.0,16.0,74,0.00,,,0.00,,2013-02-11 18:11:00,
2013-02-11 11:21:00,26.0,19.0,27.59,SSW,192,11.0,15.0,73,0.00,,,0.00,,2013-02-11 18:21:00,
2013-02-11 11:32:00,27.0,19.0,27.58,SSW,195,13.0,15.0,72,0.00,,,0.00,,2013-02-11 18:32:00,
2013-02-11 11:42:00,27.0,19.0,27.58,SSW,195,13.0,15.0,72,0.00,,,0.00,,2013-02-11 18:42:00,
2013-02-11 11:53:00,28.0,20.0,27.58,SSW,196,12.0,16.0,71,0.00,,,0.00,,2013-02-11 18:53:00,
2013-02-11 12:02:00,29.0,20.0,27.57,SSW,200,13.0,16.0,69,0.00,,,0.00,,2013-02-11 19:02:00,
2013-02-11 12:11:00,29.0,20.0,27.57,SSW,200,13.0,16.0,69,0.00,,,0.00,,2013-02-11 19:11:00,
2013-02-11 12:21:00,30.0,19.0,27.56,SSW,196,15.0,20.0,64,0.00,,,0.00,,2013-02-11 19:21:00,
2013-02-11 12:32:00,31.0,19.0,27.55,South,190,16.0,24.0,60,0.00,,,0.00,,2013-02-11 19:32:00,
2013-02-11 12:41:00,31.0,19.0,27.55,South,190,16.0,24.0,60,0.00,,,0.00,,2013-02-11 19:41:00,
2013-02-11 12:51:00,32.0,19.0,27.55,SSW,193,12.0,20.0,58,0.00,,,0.00,,2013-02-11 19:51:00,
2013-02-11 13:01:00,32.0,19.0,27.54,SSW,209,15.0,21.0,57,0.00,,,0.00,,2013-02-11 20:01:00,
2013-02-11 13:11:00,33.0,19.0,27.54,SSW,201,16.0,21.0,56,0.00,,,0.00,,2013-02-11 20:11:00,
2013-02-11 13:21:00,33.0,19.0,27.54,SSW,201,16.0,21.0,56,0.00,,,0.00,,2013-02-11 20:21:00,
2013-02-11 13:32:00,34.0,19.0,27.53,SW,216,13.0,20.0,54,0.00,,,0.00,,2013-02-11 20:32:00,
2013-02-11 13:42:00,34.0,18.0,27.52,SSW,201,16.0,24.0,51,0.00,,,0.00,,2013-02-11 20:42:00,
2013-02-11 13:52:00,34.0,18.0,27.52,SSW,201,16.0,24.0,51,0.00,,,0.00,,2013-02-11 20:52:00,
2013-02-11 14:02:00,35.0,19.0,27.52,SSW,194,12.0,19.0,52,0.00,,,0.00,,2013-02-11 21:02:00,
2013-02-11 14:11:00,35.0,18.0,27.51,SSW,198,15.0,21.0,50,0.00,,,0.00,,2013-02-11 21:11:00,
2013-02-11 14:22:00,35.0,18.0,27.51,SSW,198,15.0,21.0,50,0.00,,,0.00,,2013-02-11 21:22:00,
2013-02-11 14:32:00,35.0,18.0,27.51,SSW,196,15.0,22.0,50,0.00,,,0.00,,2013-02-11 21:32:00,
2013-02-11 14:42:00,35.0,18.0,27.51,SSW,196,15.0,22.0,50,0.00,,,0.00,,2013-02-11 21:42:00,
2013-02-11 14:52:00,35.0,18.0,27.51,SSW,196,15.0,22.0,50,0.00,,,0.00,,2013-02-11 21:52:00,
2013-02-11 15:01:00,35.0,17.0,27.50,South,191,16.0,23.0,48,0.00,,,0.00,,2013-02-11 22:01:00,
2013-02-11 15:11:00,35.0,17.0,27.50,SSW,200,17.0,23.0,48,0.00,,,0.00,,2013-02-11 22:11:00,
2013-02-11 15:22:00,35.0,17.0,27.50,SSW,200,17.0,23.0,48,0.00,,,0.00,,2013-02-11 22:22:00,
2013-02-11 15:32:00,35.0,18.0,27.50,SSW,196,12.0,19.0,50,0.00,,,0.00,,2013-02-11 22:32:00,
2013-02-11 15:42:00,35.0,18.0,27.50,SSW,196,12.0,19.0,50,0.00,,,0.00,,2013-02-11 22:42:00,
2013-02-11 15:52:00,36.0,18.0,27.50,SSW,209,17.0,23.0,48,0.00,,,0.00,,2013-02-11 22:52:00,
2013-02-11 16:02:00,35.0,19.0,27.50,SSW,212,11.0,19.0,52,0.00,,,0.00,,2013-02-11 23:02:00,
2013-02-11 16:11:00,35.0,19.0,27.50,SSW,212,11.0,19.0,52,0.00,,,0.00,,2013-02-11 23:11:00,
2013-02-11 16:21:00,35.0,20.0,27.49,SW,224,11.0,15.0,53,0.00,,,0.00,,2013-02-11 23:21:00,
2013-02-11 16:32:00,35.0,19.0,27.49,SSW,201,11.0,18.0,52,0.00,,,0.00,,2013-02-11 23:32:00,
2013-02-11 16:42:00,35.0,19.0,27.49,SSW,201,11.0,18.0,52,0.00,,,0.00,,2013-02-11 23:42:00,
2013-02-11 16:52:00,35.0,19.0,27.49,SSW,203,8.0,12.0,52,0.00,,,0.00,,2013-02-11 23:52:00,
2013-02-11 17:01:00,35.0,19.0,27.49,SSW,203,8.0,12.0,52,0.00,,,0.00,,2013-02-12 00:01:00,
2013-02-11 17:11:00,35.0,19.0,27.49,SSW,203,8.0,12.0,52,0.00,,,0.00,,2013-02-12 00:11:00,
2013-02-11 17:21:00,35.0,20.0,27.48,SSW,205,8.0,11.0,54,0.00,,,0.00,,2013-02-12 00:21:00,
2013-02-11 17:32:00,33.0,21.0,27.48,SSW,196,6.0,8.0,60,0.00,,,0.00,,2013-02-12 00:32:00,
2013-02-11 17:42:00,33.0,21.0,27.48,SSW,196,6.0,8.0,60,0.00,,,0.00,,2013-02-12 00:42:00,
2013-02-11 17:52:00,32.0,21.0,27.48,SSW,196,5.0,8.0,63,0.00,,,0.00,,2013-02-12 00:52:00,
2013-02-11 18:02:00,32.0,21.0,27.49,South,185,8.0,10.0,63,0.00,,,0.00,,2013-02-12 01:02:00,
2013-02-11 18:11:00,32.0,21.0,27.49,South,185,8.0,10.0,63,0.00,,,0.00,,2013-02-12 01:11:00,
2013-02-11 18:21:00,31.0,22.0,27.48,South,180,5.0,10.0,68,0.00,,,0.00,,2013-02-12 01:21:00,
2013-02-11 18:32:00,31.0,22.0,27.48,South,180,5.0,10.0,68,0.00,,,0.00,,2013-02-12 01:32:00,
2013-02-11 18:42:00,31.0,22.0,27.48,South,180,5.0,10.0,68,0.00,,,0.00,,2013-02-12 01:42:00,
2013-02-11 18:51:00,31.0,22.0,27.49,South,177,9.0,11.0,68,0.00,,,0.00,,2013-02-12 01:51:00,
2013-02-11 19:01:00,30.0,21.0,27.50,SSW,194,7.0,11.0,68,0.00,,,0.00,,2013-02-12 02:01:00,
2013-02-11 19:12:00,30.0,21.0,27.50,SSW,194,7.0,11.0,68,0.00,,,0.00,,2013-02-12 02:12:00,
2013-02-11 19:21:00,30.0,21.0,27.49,South,178,8.0,11.0,68,0.00,,,0.00,,2013-02-12 02:21:00,
2013-02-11 19:32:00,30.0,21.0,27.49,South,179,8.0,10.0,68,0.00,,,0.00,,2013-02-12 02:32:00,
2013-02-11 19:42:00,30.0,21.0,27.49,South,179,8.0,10.0,68,0.00,,,0.00,,2013-02-12 02:42:00,
2013-02-11 19:52:00,30.0,21.0,27.49,South,179,7.0,10.0,69,0.00,,,0.00,,2013-02-12 02:52:00,
2013-02-11 20:02:00,29.0,20.0,27.49,SSW,192,9.0,11.0,70,0.00,,,0.00,,2013-02-12 03:02:00,
2013-02-11 20:11:00,29.0,20.0,27.49,SSW,192,9.0,11.0,70,0.00,,,0.00,,2013-02-12 03:11:00,
2013-02-11 20:21:00,29.0,21.0,27.49,South,186,10.0,13.0,71,0.00,,,0.00,,2013-02-12 03:21:00,
2013-02-11 20:32:00,28.0,20.0,27.49,South,190,10.0,12.0,72,0.00,,,0.00,,2013-02-12 03:32:00,
2013-02-11 20:42:00,28.0,20.0,27.49,South,190,10.0,12.0,72,0.00,,,0.00,,2013-02-12 03:42:00,
2013-02-11 20:51:00,28.0,21.0,27.49,SSW,194,8.0,11.0,74,0.00,,,0.00,,2013-02-12 03:51:00,
2013-02-11 21:01:00,29.0,21.0,27.49,South,169,10.0,13.0,73,0.00,,,0.00,,2013-02-12 04:01:00,
2013-02-11 21:11:00,29.0,21.0,27.49,South,169,10.0,13.0,73,0.00,,,0.00,,2013-02-12 04:11:00,
2013-02-11 21:21:00,28.0,21.0,27.49,SSW,198,10.0,15.0,74,0.00,,,0.00,,2013-02-12 04:21:00,
2013-02-11 21:31:00,28.0,21.0,27.51,SSW,207,6.0,11.0,74,0.00,,,0.00,,2013-02-12 04:31:00,
2013-02-11 21:42:00,28.0,21.0,27.51,SSW,207,6.0,11.0,74,0.00,,,0.00,,2013-02-12 04:42:00,
2013-02-11 21:51:00,28.0,21.0,27.50,South,191,7.0,9.0,74,0.00,,,0.00,,2013-02-12 04:51:00,
2013-02-11 22:01:00,28.0,21.0,27.50,South,180,9.0,13.0,74,0.00,,,0.00,,2013-02-12 05:01:00,
2013-02-11 22:11:00,28.0,21.0,27.50,South,180,9.0,13.0,74,0.00,,,0.00,,2013-02-12 05:11:00,
2013-02-11 22:21:00,28.0,21.0,27.50,South,169,9.0,12.0,76,0.00,,,0.00,,2013-02-12 05:21:00,
2013-02-11 22:31:00,27.0,21.0,27.50,South,175,7.0,10.0,77,0.00,,,0.00,,2013-02-12 05:31:00,
2013-02-11 22:42:00,27.0,21.0,27.50,South,175,7.0,10.0,77,0.00,,,0.00,,2013-02-12 05:42:00,
2013-02-11 22:52:00,27.0,21.0,27.50,South,186,10.0,13.0,78,0.00,,,0.00,,2013-02-12 05:52:00,
2013-02-11 23:01:00,27.0,21.0,27.50,South,187,10.0,13.0,78,0.00,,,0.00,,2013-02-12 06:01:00,
2013-02-11 23:12:00,27.0,21.0,27.50,South,179,11.0,14.0,77,0.00,,,0.00,,2013-02-12 06:12:00,
2013-02-11 23:21:00,27.0,21.0,27.50,South,179,11.0,14.0,77,0.00,,,0.00,,2013-02-12 06:21:00,
2013-02-11 23:32:00,26.0,20.0,27.50,South,189,10.0,16.0,78,0.00,,,0.00,,2013-02-12 06:32:00,
2013-02-11 23:42:00,26.0,20.0,27.50,SSW,195,11.0,15.0,78,0.00,,,0.00,,2013-02-12 06:42:00,
2013-02-11 23:51:00,26.0,20.0,27.50,SSW,195,11.0,15.0,78,0.00,,,0.00,,2013-02-12 06:51:00,